Time;durP1;ratioP1;P1;durP2;ratioP2;P2;SDS_P1;SDS_P2;PMS_P1;PMS_P2;Temp;Humidity;BMP_temperature;BMP_pressure;BME280_temperature;BME280_humidity;BME280_pressure;Samples;Min_cycle;Max_cycle;Signal;HPM_P1;HPM_P2
2021/04/24 00:02:22;;;;;;;3.87;3.43;;;10.00;21.40;;;;;;10444144;28;20648;-73
2021/04/24 00:07:24;;;;;;;3.53;3.23;;;10.00;21.40;;;;;;10447608;28;20225;-72
2021/04/24 00:12:27;;;;;;;4.20;3.53;;;9.90;22.30;;;;;;10445774;28;20676;-72
2021/04/24 00:17:30;;;;;;;6.97;4.00;;;9.90;22.50;;;;;;10445589;28;20228;-73
2021/04/24 00:22:32;;;;;;;4.33;3.60;;;9.80;22.50;;;;;;10447985;28;20249;-72
2021/04/24 00:27:35;;;;;;;8.73;3.83;;;9.90;22.50;;;;;;10442254;28;20256;-72
2021/04/24 00:32:38;;;;;;;6.07;3.93;;;9.80;22.50;;;;;;10447719;28;20237;-72
2021/04/24 00:37:41;;;;;;;5.20;3.60;;;9.70;22.40;;;;;;10445507;28;20221;-72
2021/04/24 00:42:47;;;;;;;4.10;3.60;;;9.60;22.40;;;;;;10445471;28;20229;-72
2021/04/24 00:47:50;;;;;;;7.37;4.33;;;9.50;22.80;;;;;;10442678;28;20247;-72
2021/04/24 00:52:52;;;;;;;3.97;3.60;;;9.40;22.60;;;;;;10444012;28;20220;-72
2021/04/24 00:57:57;;;;;;;4.43;4.00;;;9.40;22.60;;;;;;10448466;28;20260;-72
2021/04/24 01:02:59;;;;;;;4.83;4.00;;;9.30;23.00;;;;;;10445884;28;20239;-72
2021/04/24 01:08:02;;;;;;;5.50;4.50;;;9.30;22.80;;;;;;10443666;28;20776;-73
2021/04/24 01:13:07;;;;;;;4.43;3.93;;;9.20;22.80;;;;;;10446878;28;20231;-72
2021/04/24 01:18:11;;;;;;;5.43;3.80;;;9.10;23.00;;;;;;10445514;28;20300;-72
2021/04/24 01:23:14;;;;;;;8.20;4.07;;;9.00;22.90;;;;;;10442817;28;20329;-72
2021/04/24 01:28:17;;;;;;;4.37;3.30;;;9.00;23.20;;;;;;10443117;28;20325;-72
2021/04/24 01:33:20;;;;;;;4.77;4.23;;;9.00;23.10;;;;;;10437122;28;20253;-72
2021/04/24 01:38:23;;;;;;;5.00;3.40;;;9.00;23.10;;;;;;10442212;28;20235;-72
2021/04/24 01:43:25;;;;;;;4.57;3.20;;;8.90;23.10;;;;;;10439790;28;20526;-72
2021/04/24 01:48:27;;;;;;;4.10;3.50;;;8.70;23.10;;;;;;10442350;28;20290;-72
2021/04/24 01:53:31;;;;;;;4.23;3.60;;;8.60;23.20;;;;;;10440522;28;20225;-72
2021/04/24 01:58:33;;;;;;;3.77;3.27;;;8.60;23.50;;;;;;10441601;28;20236;-72
2021/04/24 02:03:36;;;;;;;5.70;3.80;;;8.60;23.30;;;;;;10441745;28;20316;-72
2021/04/24 02:08:42;;;;;;;4.10;3.63;;;8.60;23.50;;;;;;10445933;28;20600;-72
2021/04/24 02:13:45;;;;;;;4.30;3.60;;;8.60;23.70;;;;;;10441126;28;20229;-72
2021/04/24 02:18:47;;;;;;;3.63;3.33;;;8.60;23.50;;;;;;10445450;28;20221;-72
2021/04/24 02:23:51;;;;;;;4.53;3.43;;;8.50;23.40;;;;;;10440234;28;20540;-73
2021/04/24 02:28:54;;;;;;;3.93;3.17;;;8.50;23.50;;;;;;10436445;28;20713;-73
2021/04/24 02:33:56;;;;;;;3.90;3.50;;;8.40;23.50;;;;;;10443942;28;20720;-72
2021/04/24 02:38:59;;;;;;;3.23;2.93;;;8.30;23.60;;;;;;10441808;28;20286;-73
2021/04/24 02:44:01;;;;;;;4.77;3.27;;;8.30;23.70;;;;;;10443671;28;20316;-73
2021/04/24 02:49:07;;;;;;;4.00;3.43;;;8.30;23.60;;;;;;10439990;28;20316;-73
2021/04/24 02:54:10;;;;;;;5.80;4.40;;;8.30;23.60;;;;;;10441743;28;20240;-72
2021/04/24 02:59:13;;;;;;;5.87;3.93;;;8.30;23.80;;;;;;10439599;28;20308;-73
2021/04/24 03:04:16;;;;;;;5.33;4.53;;;8.30;23.60;;;;;;10437933;28;20324;-72
2021/04/24 03:09:19;;;;;;;4.47;3.80;;;8.20;23.70;;;;;;10444007;28;20311;-72
2021/04/24 03:14:21;;;;;;;5.07;4.13;;;8.10;23.70;;;;;;10451639;28;20663;-72
2021/04/24 03:19:24;;;;;;;3.67;3.37;;;8.10;23.70;;;;;;10449063;28;20308;-72
2021/04/24 03:24:27;;;;;;;6.20;3.80;;;8.10;23.80;;;;;;10450519;28;20884;-72
2021/04/24 03:29:29;;;;;;;4.27;3.70;;;8.00;23.90;;;;;;10448259;28;20637;-72
2021/04/24 03:34:31;;;;;;;4.63;4.10;;;8.00;23.80;;;;;;10443027;28;20229;-72
2021/04/24 03:39:34;;;;;;;5.40;3.87;;;7.90;23.80;;;;;;10446936;28;20244;-72
2021/04/24 03:44:36;;;;;;;4.60;4.00;;;7.80;24.10;;;;;;10447566;28;20665;-72
2021/04/24 03:49:39;;;;;;;5.30;4.20;;;7.70;24.00;;;;;;10447490;28;20233;-72
2021/04/24 03:54:42;;;;;;;6.30;4.83;;;7.60;24.00;;;;;;10450585;28;20651;-73
2021/04/24 03:59:44;;;;;;;4.13;3.73;;;7.60;24.30;;;;;;10446661;28;20252;-72
2021/04/24 04:04:47;;;;;;;5.97;4.23;;;7.60;24.10;;;;;;10449213;28;20825;-72
2021/04/24 04:09:50;;;;;;;4.30;3.73;;;7.50;24.30;;;;;;10447092;28;20601;-72
2021/04/24 04:14:52;;;;;;;3.83;3.40;;;7.50;24.50;;;;;;10446653;28;20693;-72
2021/04/24 04:19:54;;;;;;;4.77;3.50;;;7.50;24.30;;;;;;10445120;28;20217;-72
2021/04/24 04:24:57;;;;;;;4.77;3.43;;;7.50;24.30;;;;;;10446630;28;20312;-72
2021/04/24 04:30:00;;;;;;;4.27;3.20;;;7.40;24.50;;;;;;10446196;28;20229;-72
2021/04/24 04:35:03;;;;;;;6.43;3.73;;;7.40;24.50;;;;;;10447195;28;20231;-73
2021/04/24 04:40:08;;;;;;;5.80;4.10;;;7.30;24.60;;;;;;10447732;28;20324;-72
2021/04/24 04:45:12;;;;;;;4.90;3.67;;;7.30;25.00;;;;;;10446034;28;20958;-72
2021/04/24 04:50:17;;;;;;;4.50;3.70;;;7.30;24.90;;;;;;10447465;28;20332;-72
2021/04/24 04:55:20;;;;;;;4.20;3.80;;;7.20;25.00;;;;;;10440793;28;20264;-72
2021/04/24 05:00:24;;;;;;;4.33;3.77;;;7.20;25.00;;;;;;10446546;28;20232;-72
2021/04/24 05:05:26;;;;;;;4.03;3.57;;;7.20;25.10;;;;;;10445783;28;20228;-72
2021/04/24 05:10:30;;;;;;;5.27;3.60;;;7.20;25.00;;;;;;10445282;28;20231;-72
2021/04/24 05:15:32;;;;;;;6.47;4.20;;;7.20;25.30;;;;;;10443237;28;20221;-72
2021/04/24 05:20:34;;;;;;;5.27;3.27;;;7.20;25.30;;;;;;10445736;28;20252;-72
2021/04/24 05:25:37;;;;;;;4.70;3.67;;;7.20;25.30;;;;;;10445189;28;20239;-72
2021/04/24 05:30:39;;;;;;;5.70;3.90;;;7.20;25.60;;;;;;10447024;28;20784;-73
2021/04/24 05:35:41;;;;;;;5.20;3.30;;;7.20;26.20;;;;;;10444908;28;20247;-73
2021/04/24 05:40:45;;;;;;;5.43;3.87;;;7.20;25.60;;;;;;10453626;28;20312;-73
2021/04/24 05:45:47;;;;;;;5.97;4.10;;;7.20;25.90;;;;;;10444069;28;20235;-72
2021/04/24 05:50:49;;;;;;;6.37;3.80;;;7.20;25.90;;;;;;10441006;28;20323;-72
2021/04/24 05:55:52;;;;;;;9.83;4.00;;;7.30;26.20;;;;;;10443779;28;20237;-72
2021/04/24 06:00:54;;;;;;;7.97;4.40;;;7.30;26.40;;;;;;10443030;28;20308;-72
2021/04/24 06:05:57;;;;;;;5.73;4.10;;;7.40;26.40;;;;;;10444292;28;20251;-72
2021/04/24 06:11:00;;;;;;;5.10;4.33;;;7.40;26.50;;;;;;10436291;28;20260;-72
2021/04/24 06:16:03;;;;;;;8.63;6.63;;;7.50;26.90;;;;;;10442184;28;20304;-71
2021/04/24 06:21:05;;;;;;;4.97;4.43;;;7.60;26.90;;;;;;10445009;28;20251;-71
2021/04/24 06:26:08;;;;;;;6.00;3.83;;;7.80;26.90;;;;;;10437876;28;20304;-71
2021/04/24 06:31:11;;;;;;;4.63;3.50;;;7.90;27.00;;;;;;10439308;28;20229;-71
2021/04/24 06:36:17;;;;;;;7.20;4.67;;;8.10;26.80;;;;;;10437862;28;20225;-72
2021/04/24 06:41:20;;;;;;;6.50;3.83;;;8.20;26.90;;;;;;10443394;28;20323;-72
2021/04/24 06:46:22;;;;;;;4.40;3.40;;;8.40;26.90;;;;;;10450465;28;20320;-72
2021/04/24 06:51:24;;;;;;;3.50;3.20;;;8.60;26.70;;;;;;10442792;28;20228;-72
2021/04/24 06:56:27;;;;;;;5.10;3.20;;;8.80;26.50;;;;;;10441598;28;20247;-81
2021/04/24 07:01:30;;;;;;;6.20;3.30;;;9.00;26.90;;;;;;10452120;28;20224;-72
2021/04/24 07:06:32;;;;;;;3.83;2.90;;;9.20;26.80;;;;;;10448507;28;20309;-72
2021/04/24 07:11:35;;;;;;;4.23;3.10;;;9.40;26.60;;;;;;10448714;28;20283;-72
2021/04/24 07:16:38;;;;;;;4.47;3.20;;;9.60;26.80;;;;;;10452025;28;20248;-73
2021/04/24 07:21:40;;;;;;;4.03;2.87;;;9.80;26.50;;;;;;10444661;28;20314;-77
2021/04/24 07:26:43;;;;;;;4.73;3.47;;;10.10;25.90;;;;;;10448116;28;20245;-72
2021/04/24 07:31:46;;;;;;;5.43;3.73;;;10.30;26.00;;;;;;10444991;28;20773;-73
2021/04/24 07:36:49;;;;;;;4.50;3.20;;;10.50;26.00;;;;;;10450519;28;20311;-73
2021/04/24 07:41:52;;;;;;;5.90;3.87;;;10.70;25.90;;;;;;10451397;28;20239;-73
2021/04/24 07:46:54;;;;;;;5.43;3.97;;;11.00;26.20;;;;;;10450062;28;20221;-73
2021/04/24 07:51:56;;;;;;;4.90;4.23;;;11.20;26.30;;;;;;10448028;28;20225;-72
2021/04/24 07:57:00;;;;;;;5.70;3.60;;;11.50;26.40;;;;;;10445489;28;20229;-73
2021/04/24 08:02:02;;;;;;;7.93;4.03;;;11.80;26.40;;;;;;10446437;28;20312;-73
2021/04/24 08:07:07;;;;;;;4.53;3.53;;;12.20;26.40;;;;;;10443037;28;20225;-73
2021/04/24 08:12:10;;;;;;;4.90;3.80;;;12.40;26.50;;;;;;10449866;28;20225;-72
2021/04/24 08:17:13;;;;;;;4.60;3.67;;;12.80;26.30;;;;;;10445879;28;20256;-73
2021/04/24 08:22:16;;;;;;;5.13;3.10;;;13.10;25.90;;;;;;10442511;28;20264;-72
2021/04/24 08:27:19;;;;;;;3.90;3.50;;;13.50;26.10;;;;;;10444081;28;20639;-73
2021/04/24 08:32:22;;;;;;;4.73;3.70;;;13.90;26.10;;;;;;10442690;28;20316;-73
2021/04/24 08:37:24;;;;;;;7.03;3.80;;;14.30;25.90;;;;;;10447384;28;20224;-73
2021/04/24 08:42:28;;;;;;;6.03;4.37;;;14.70;25.60;;;;;;10447350;28;20315;-72
2021/04/24 08:47:35;;;;;;;4.50;3.77;;;15.10;25.40;;;;;;10444886;28;20229;-72
2021/04/24 08:52:37;;;;;;;4.80;3.80;;;15.40;25.10;;;;;;10441044;28;20280;-72
2021/04/24 08:57:41;;;;;;;5.07;3.50;;;15.80;25.10;;;;;;10447771;28;20268;-72
2021/04/24 09:02:45;;;;;;;3.93;3.53;;;16.10;24.60;;;;;;10445050;28;20315;-72
2021/04/24 09:07:56;;;;;;;5.40;3.67;;;16.50;24.90;;;;;;10445133;28;20241;-72
2021/04/24 09:12:59;;;;;;;3.87;3.30;;;16.80;23.70;;;;;;10444846;28;20311;-71
2021/04/24 09:18:03;;;;;;;3.90;3.33;;;17.10;23.40;;;;;;10443251;28;20618;-72
2021/04/24 09:23:07;;;;;;;7.03;4.20;;;17.30;23.40;;;;;;10443977;28;20689;-72
2021/04/24 09:28:12;;;;;;;6.50;5.20;;;17.60;22.80;;;;;;10442130;28;20301;-72
2021/04/24 09:33:15;;;;;;;6.00;4.67;;;17.80;22.20;;;;;;10443878;28;20311;-72
2021/04/24 09:38:20;;;;;;;5.53;4.53;;;18.00;22.10;;;;;;10444460;28;20316;-72
2021/04/24 09:43:23;;;;;;;5.47;4.47;;;18.20;21.80;;;;;;10439210;28;20643;-72
2021/04/24 09:48:26;;;;;;;6.00;4.20;;;18.40;21.50;;;;;;10440311;28;20230;-72
2021/04/24 09:53:28;;;;;;;5.00;4.47;;;18.60;21.60;;;;;;10440864;28;20238;-71
2021/04/24 09:58:33;;;;;;;7.87;4.63;;;18.80;21.50;;;;;;10443752;28;20308;-71
2021/04/24 10:03:40;;;;;;;5.63;4.60;;;18.90;20.90;;;;;;10437426;28;20229;-72
2021/04/24 10:08:42;;;;;;;6.50;4.90;;;19.10;20.40;;;;;;10443061;28;20267;-72
2021/04/24 10:13:45;;;;;;;5.93;4.53;;;19.30;21.30;;;;;;10438152;28;20303;-72
2021/04/24 10:18:48;;;;;;;6.30;4.63;;;19.50;21.00;;;;;;10442577;28;20227;-72
2021/04/24 10:23:51;;;;;;;5.63;4.63;;;19.70;20.90;;;;;;10442073;28;20261;-73
2021/04/24 10:28:56;;;;;;;4.90;4.40;;;19.90;20.30;;;;;;10444878;28;20224;-73
2021/04/24 10:33:59;;;;;;;6.03;4.37;;;20.10;20.30;;;;;;10439198;28;20303;-74
2021/04/24 10:39:04;;;;;;;5.90;4.80;;;20.30;20.20;;;;;;10435751;28;20288;-73
2021/04/24 10:44:10;;;;;;;5.17;4.67;;;20.40;19.70;;;;;;10442889;28;20294;-73
2021/04/24 10:49:24;;;;;;;5.07;4.40;;;20.40;19.00;;;;;;10442276;28;20223;-72
2021/04/24 10:54:28;;;;;;;5.17;4.60;;;20.50;18.50;;;;;;10444833;28;20324;-73
2021/04/24 10:59:32;;;;;;;5.77;4.20;;;20.70;19.50;;;;;;10442958;28;20228;-70
2021/04/24 11:04:42;;;;;;;5.53;4.23;;;20.80;19.00;;;;;;10441280;28;20234;-72
2021/04/24 11:09:45;;;;;;;4.23;3.60;;;20.90;17.90;;;;;;10444029;28;20230;-72
2021/04/24 11:14:48;;;;;;;6.00;3.93;;;20.80;18.60;;;;;;10437401;28;20303;-72
2021/04/24 11:19:51;;;;;;;3.53;3.23;;;21.00;18.30;;;;;;10444745;28;20237;-72
2021/04/24 11:24:53;;;;;;;6.77;4.20;;;21.00;18.60;;;;;;10444228;28;20731;-70
2021/04/24 11:29:56;;;;;;;4.10;3.70;;;21.10;18.50;;;;;;10439314;28;20312;-73
2021/04/24 11:35:11;;;;;;;4.17;3.77;;;21.10;18.10;;;;;;10451850;28;20286;-70
2021/04/24 11:40:31;;;;;;;5.20;3.80;;;21.10;16.90;;;;;;10444687;28;20227;-70
2021/04/24 11:45:53;;;;;;;4.37;3.40;;;21.10;16.90;;;;;;10450739;28;20228;-73
2021/04/24 11:50:55;;;;;;;3.87;3.37;;;21.20;17.10;;;;;;10447955;28;20225;-71
2021/04/24 11:55:57;;;;;;;4.40;3.50;;;21.30;17.80;;;;;;10448109;28;20303;-72
2021/04/24 12:01:00;;;;;;;6.87;3.47;;;21.30;17.60;;;;;;10450171;28;20643;-72
2021/04/24 12:06:03;;;;;;;4.20;3.80;;;21.40;17.30;;;;;;10446624;28;20217;-72
2021/04/24 12:11:09;;;;;;;5.00;4.20;;;21.40;17.50;;;;;;10450359;28;20256;-70
2021/04/24 12:16:12;;;;;;;6.63;3.93;;;21.50;16.40;;;;;;10445420;28;20248;-70
2021/04/24 12:21:25;;;;;;;6.07;3.90;;;21.40;16.60;;;;;;10445747;28;20244;-71
2021/04/24 12:26:28;;;;;;;4.33;3.93;;;21.40;14.40;;;;;;10442312;28;20231;-70
2021/04/24 12:31:32;;;;;;;4.30;3.90;;;21.30;16.10;;;;;;10448733;28;20225;-69
2021/04/24 12:36:39;;;;;;;3.87;3.43;;;21.10;15.90;;;;;;10440654;28;20316;-70
2021/04/24 12:41:47;;;;;;;3.17;2.83;;;21.10;14.50;;;;;;10445116;28;20755;-70
2021/04/24 12:46:50;;;;;;;3.80;2.60;;;21.00;13.30;;;;;;10446549;28;20221;-70
2021/04/24 12:52:01;;;;;;;4.27;3.77;;;20.80;15.50;;;;;;10443755;28;20574;-70
2021/04/24 12:57:13;;;;;;;4.97;3.43;;;20.80;14.20;;;;;;10442223;28;20866;-70
2021/04/24 13:02:31;;;;;;;3.80;3.33;;;20.80;14.60;;;;;;10441376;28;20224;-70
2021/04/24 13:07:34;;;;;;;4.20;3.80;;;20.80;14.70;;;;;;10445877;28;20231;-71
2021/04/24 13:12:36;;;;;;;4.77;3.60;;;20.90;15.20;;;;;;10440854;28;20328;-71
2021/04/24 13:17:44;;;;;;;4.43;3.60;;;20.90;15.80;;;;;;10446192;28;20232;-70
2021/04/24 13:22:46;;;;;;;4.97;3.60;;;20.90;14.70;;;;;;10444995;28;20247;-70
2021/04/24 13:27:49;;;;;;;3.90;3.47;;;20.90;15.30;;;;;;10442189;28;20300;-70
2021/04/24 13:32:57;;;;;;;5.10;3.83;;;20.90;15.30;;;;;;10440525;28;20338;-70
2021/04/24 13:37:59;;;;;;;4.23;3.83;;;21.00;14.30;;;;;;10442074;28;20823;-71
2021/04/24 13:43:01;;;;;;;5.33;3.93;;;21.00;15.20;;;;;;10443529;28;20221;-71
2021/04/24 13:48:07;;;;;;;4.03;3.73;;;21.10;14.50;;;;;;10441896;28;20300;-70
2021/04/24 13:53:12;;;;;;;6.63;5.97;;;21.10;14.90;;;;;;10439616;28;20287;-71
2021/04/24 13:58:17;;;;;;;4.27;3.83;;;21.20;15.00;;;;;;10441986;28;20291;-71
2021/04/24 14:03:20;;;;;;;5.20;4.03;;;21.20;14.90;;;;;;10438190;28;20838;-71
2021/04/24 14:08:22;;;;;;;4.60;3.67;;;21.20;15.00;;;;;;10440315;28;20228;-71
2021/04/24 14:13:24;;;;;;;5.50;3.60;;;21.30;15.10;;;;;;10441608;28;20662;-70
2021/04/24 14:18:47;;;;;;;4.53;3.80;;;21.30;15.20;;;;;;10442414;28;20217;-70
2021/04/24 14:23:50;;;;;;;4.37;3.90;;;21.50;14.60;;;;;;10443746;28;20267;-70
2021/04/24 14:28:53;;;;;;;3.90;3.43;;;21.50;14.90;;;;;;10435647;28;20236;-70
2021/04/24 14:33:57;;;;;;;4.80;4.13;;;21.50;14.80;;;;;;10432915;28;20287;-70
2021/04/24 14:39:02;;;;;;;3.63;3.33;;;21.60;14.00;;;;;;10434021;28;20601;-71
2021/04/24 14:44:04;;;;;;;6.40;3.77;;;21.60;14.80;;;;;;10440007;28;20320;-70
2021/04/24 14:49:07;;;;;;;4.00;3.60;;;21.60;14.50;;;;;;10439343;28;20225;-71
2021/04/24 14:54:09;;;;;;;4.00;3.60;;;21.70;14.60;;;;;;10432861;28;20307;-71
2021/04/24 14:59:11;;;;;;;5.50;4.43;;;21.70;14.20;;;;;;10442765;28;20225;-71
2021/04/24 15:04:15;;;;;;;4.23;3.83;;;21.60;14.20;;;;;;10445464;28;20252;-71
2021/04/24 15:09:17;;;;;;;4.17;3.77;;;21.60;14.20;;;;;;10449672;28;20240;-71
2021/04/24 15:14:19;;;;;;;4.73;4.00;;;21.70;14.50;;;;;;10450719;28;20228;-71
2021/04/24 15:19:22;;;;;;;5.10;3.50;;;21.70;14.40;;;;;;10445643;28;20755;-71
2021/04/24 15:24:24;;;;;;;4.33;3.93;;;21.80;14.30;;;;;;10451165;28;20255;-70
2021/04/24 15:29:27;;;;;;;4.83;4.33;;;21.90;14.60;;;;;;10450232;28;20279;-70
2021/04/24 15:34:30;;;;;;;4.60;4.13;;;21.90;14.00;;;;;;10440098;28;20772;-70
2021/04/24 15:39:32;;;;;;;5.03;4.17;;;22.00;13.90;;;;;;10446522;28;20229;-70
2021/04/24 15:44:34;;;;;;;5.17;4.67;;;21.90;14.40;;;;;;10448669;28;20230;-70
2021/04/24 15:49:38;;;;;;;4.83;4.20;;;21.90;14.60;;;;;;10446009;28;20216;-70
2021/04/24 15:54:43;;;;;;;7.47;4.10;;;21.90;14.10;;;;;;10446848;28;20248;-70
2021/04/24 15:59:45;;;;;;;4.77;4.20;;;21.80;14.10;;;;;;10448162;28;20225;-70
2021/04/24 16:04:48;;;;;;;5.63;4.60;;;21.80;14.20;;;;;;10447351;28;20243;-70
2021/04/24 16:09:52;;;;;;;5.40;4.83;;;21.80;14.00;;;;;;10449926;28;20658;-70
2021/04/24 16:14:54;;;;;;;4.87;4.40;;;21.80;14.10;;;;;;10443828;28;20303;-70
2021/04/24 16:19:58;;;;;;;5.63;4.27;;;21.80;14.10;;;;;;10447895;28;20220;-70
2021/04/24 16:25:00;;;;;;;5.10;4.60;;;21.80;13.80;;;;;;10450662;28;20243;-71
2021/04/24 16:30:04;;;;;;;4.60;4.20;;;21.90;14.30;;;;;;10446888;28;20213;-71
2021/04/24 16:35:09;;;;;;;4.73;4.30;;;22.00;14.10;;;;;;10447697;28;20229;-70
2021/04/24 16:40:12;;;;;;;4.40;3.97;;;22.00;13.90;;;;;;10446197;28;20248;-70
2021/04/24 16:45:15;;;;;;;4.40;4.00;;;22.10;14.00;;;;;;10437981;28;20267;-70
2021/04/24 16:50:20;;;;;;;4.27;3.87;;;22.10;14.10;;;;;;10444875;28;20260;-71
2021/04/24 16:55:23;;;;;;;5.67;3.97;;;22.20;13.90;;;;;;10441396;28;20321;-71
2021/04/24 17:00:25;;;;;;;5.63;4.27;;;22.30;14.00;;;;;;10444778;28;20328;-71
2021/04/24 17:05:28;;;;;;;5.33;4.23;;;22.30;14.00;;;;;;10444913;28;20709;-71
2021/04/24 17:10:31;;;;;;;4.40;3.97;;;22.30;13.70;;;;;;10441253;28;20658;-71
2021/04/24 17:15:33;;;;;;;6.13;4.20;;;22.30;13.90;;;;;;10442099;28;20307;-71
2021/04/24 17:20:36;;;;;;;5.23;3.63;;;22.30;14.10;;;;;;10439976;28;20221;-71
2021/04/24 17:25:41;;;;;;;4.60;4.20;;;22.30;14.90;;;;;;10445686;28;20235;-71
2021/04/24 17:30:45;;;;;;;4.20;3.70;;;22.30;14.40;;;;;;10442342;28;20240;-71
2021/04/24 17:35:48;;;;;;;4.00;3.60;;;22.20;14.10;;;;;;10443201;28;20316;-71
2021/04/24 17:40:50;;;;;;;4.23;3.57;;;22.10;14.10;;;;;;10443730;28;20312;-71
2021/04/24 17:45:52;;;;;;;3.73;3.33;;;22.10;14.10;;;;;;10440003;28;20271;-71
2021/04/24 17:50:56;;;;;;;3.73;3.27;;;21.90;14.00;;;;;;10440938;28;20255;-71
2021/04/24 17:55:58;;;;;;;3.50;3.20;;;21.80;13.80;;;;;;10439820;28;20300;-71
2021/04/24 18:01:00;;;;;;;4.07;3.63;;;21.60;13.90;;;;;;10443693;28;20225;-71
2021/04/24 18:06:04;;;;;;;3.90;3.20;;;21.40;14.10;;;;;;10446123;28;20678;-71
2021/04/24 18:11:07;;;;;;;3.83;3.50;;;21.30;14.30;;;;;;10444781;28;20275;-71
2021/04/24 18:16:09;;;;;;;5.03;3.23;;;21.10;14.30;;;;;;10443029;28;20225;-71
2021/04/24 18:21:13;;;;;;;4.00;3.50;;;21.10;14.50;;;;;;10441072;28;20907;-71
2021/04/24 18:26:16;;;;;;;3.67;3.13;;;20.90;14.60;;;;;;10443141;28;20266;-71
2021/04/24 18:31:19;;;;;;;5.33;3.43;;;20.80;15.70;;;;;;10442396;28;20637;-71
2021/04/24 18:36:24;;;;;;;8.00;3.70;;;20.70;15.60;;;;;;10441855;28;20291;-71
2021/04/24 18:41:27;;;;;;;13.27;7.87;;;20.70;15.60;;;;;;10443334;28;20312;-74
2021/04/24 18:46:29;;;;;;;7.70;4.83;;;20.70;15.30;;;;;;10439117;28;20228;-74
2021/04/24 18:51:32;;;;;;;4.23;3.77;;;20.60;14.70;;;;;;10446006;28;20229;-74
2021/04/24 18:56:35;;;;;;;4.47;3.43;;;20.50;14.80;;;;;;10445398;28;20228;-70
2021/04/24 19:01:37;;;;;;;4.17;3.40;;;20.40;14.90;;;;;;10440386;28;20307;-72
2021/04/24 19:06:40;;;;;;;5.03;4.40;;;20.20;15.30;;;;;;10443707;28;20311;-73
2021/04/24 19:11:43;;;;;;;5.00;4.53;;;20.10;15.20;;;;;;10441836;28;20282;-73
2021/04/24 19:16:45;;;;;;;5.47;4.97;;;20.00;15.70;;;;;;10446968;28;20248;-73
2021/04/24 19:21:49;;;;;;;6.33;5.60;;;19.90;15.10;;;;;;10440302;28;20225;-74
2021/04/24 19:26:51;;;;;;;5.43;4.93;;;19.70;15.00;;;;;;10443173;28;20271;-75
2021/04/24 19:31:54;;;;;;;6.80;4.67;;;19.50;14.80;;;;;;10439141;28;20641;-73
2021/04/24 19:36:59;;;;;;;4.30;3.87;;;19.40;15.20;;;;;;10440039;28;20243;-73
2021/04/24 19:42:03;;;;;;;5.33;4.20;;;19.20;15.10;;;;;;10436136;28;20260;-75
2021/04/24 19:47:05;;;;;;;4.80;4.30;;;19.00;15.20;;;;;;10443477;28;20311;-75
2021/04/24 19:52:15;;;;;;;5.37;4.40;;;18.90;15.10;;;;;;10449529;28;20275;-74
2021/04/24 19:57:17;;;;;;;4.57;3.93;;;18.70;15.20;;;;;;10452504;28;20307;-75
2021/04/24 20:02:20;;;;;;;4.27;3.90;;;18.50;15.40;;;;;;10451235;28;20227;-74
2021/04/24 20:07:24;;;;;;;4.70;4.17;;;18.30;15.40;;;;;;10448678;28;20900;-74
2021/04/24 20:12:26;;;;;;;8.33;5.10;;;18.00;15.40;;;;;;10452572;28;20245;-76
2021/04/24 20:17:28;;;;;;;7.73;6.80;;;17.60;15.50;;;;;;10438841;28;20253;-76
2021/04/24 20:22:34;;;;;;;6.87;6.17;;;17.20;15.70;;;;;;10442756;28;20259;-76
2021/04/24 20:27:37;;;;;;;8.27;5.50;;;17.00;16.20;;;;;;10442388;28;20291;-76
2021/04/24 20:32:40;;;;;;;8.10;5.50;;;16.80;16.30;;;;;;10446065;28;20343;-74
2021/04/24 20:37:43;;;;;;;6.20;4.40;;;16.80;16.50;;;;;;10449711;28;20307;-74
2021/04/24 20:42:45;;;;;;;4.73;3.73;;;16.60;16.50;;;;;;10451121;28;20304;-76
2021/04/24 20:47:48;;;;;;;4.47;3.83;;;16.40;16.30;;;;;;10451125;28;20755;-76
2021/04/24 20:52:51;;;;;;;4.57;4.17;;;16.20;16.40;;;;;;10451840;28;20229;-76
2021/04/24 20:57:53;;;;;;;6.37;4.43;;;15.80;16.50;;;;;;10449271;28;20252;-76
2021/04/24 21:02:55;;;;;;;5.73;5.07;;;15.60;16.70;;;;;;10451242;28;20253;-74
2021/04/24 21:07:58;;;;;;;4.97;4.47;;;15.40;16.80;;;;;;10451531;28;20248;-74
2021/04/24 21:13:01;;;;;;;4.27;3.77;;;15.20;17.10;;;;;;10445981;28;20311;-74
2021/04/24 21:18:03;;;;;;;6.13;4.03;;;15.10;17.10;;;;;;10445781;28;20644;-74
2021/04/24 21:23:06;;;;;;;7.10;6.40;;;15.10;17.30;;;;;;10446925;28;20984;-74
2021/04/24 21:28:09;;;;;;;5.63;5.10;;;15.00;17.60;;;;;;10448684;28;20220;-75
2021/04/24 21:33:11;;;;;;;4.60;4.20;;;15.00;17.40;;;;;;10445982;28;20264;-74
2021/04/24 21:38:15;;;;;;;5.23;3.83;;;14.90;17.40;;;;;;10449709;28;20594;-74
2021/04/24 21:43:17;;;;;;;4.73;3.40;;;14.80;17.70;;;;;;10444172;28;20255;-74
2021/04/24 21:48:19;;;;;;;4.13;3.73;;;14.80;17.70;;;;;;10446074;28;20245;-74
2021/04/24 21:53:22;;;;;;;3.90;3.60;;;14.80;18.30;;;;;;10447055;28;20331;-76
2021/04/24 21:58:25;;;;;;;3.80;3.40;;;14.70;17.70;;;;;;10443083;28;20311;-75
2021/04/24 22:03:32;;;;;;;4.33;3.00;;;14.60;17.50;;;;;;10449262;28;20320;-74
2021/04/24 22:08:42;;;;;;;4.10;3.70;;;14.50;18.00;;;;;;10436089;28;20637;-74
2021/04/24 22:13:44;;;;;;;5.87;3.33;;;14.40;17.90;;;;;;10443883;28;20632;-74
2021/04/24 22:18:47;;;;;;;4.20;3.30;;;14.40;17.90;;;;;;10440679;28;20252;-77
2021/04/24 22:23:51;;;;;;;5.33;3.90;;;14.30;17.90;;;;;;10447271;28;20225;-74
2021/04/24 22:28:54;;;;;;;4.17;3.57;;;14.20;18.30;;;;;;10444201;28;20230;-74
2021/04/24 22:33:56;;;;;;;4.77;4.17;;;14.10;18.00;;;;;;10443498;28;20693;-74
2021/04/24 22:38:59;;;;;;;4.00;3.60;;;13.90;17.90;;;;;;10444617;28;20227;-75
2021/04/24 22:44:03;;;;;;;4.30;3.73;;;13.80;18.20;;;;;;10447289;28;20295;-75
2021/04/24 22:49:06;;;;;;;4.67;4.03;;;13.70;18.20;;;;;;10440532;28;20228;-75
2021/04/24 22:54:10;;;;;;;4.13;3.73;;;13.50;18.20;;;;;;10447171;28;20763;-75
2021/04/24 22:59:12;;;;;;;4.97;4.47;;;13.30;18.40;;;;;;10443879;28;20312;-75
2021/04/24 23:04:14;;;;;;;6.10;4.40;;;13.10;18.60;;;;;;10447643;28;20757;-75
2021/04/24 23:09:17;;;;;;;5.17;4.77;;;13.10;18.90;;;;;;10445134;28;20235;-75
2021/04/24 23:14:19;;;;;;;8.00;4.50;;;13.00;18.90;;;;;;10445277;28;20741;-76
2021/04/24 23:19:22;;;;;;;5.97;4.43;;;13.00;18.90;;;;;;10440187;28;20229;-75
2021/04/24 23:24:25;;;;;;;5.00;4.40;;;12.90;19.00;;;;;;10442920;28;20307;-75
2021/04/24 23:29:27;;;;;;;4.53;4.00;;;12.80;19.10;;;;;;10450188;28;20328;-75
2021/04/24 23:34:29;;;;;;;4.63;4.23;;;12.70;19.00;;;;;;10449092;28;20679;-75
2021/04/24 23:39:32;;;;;;;5.47;4.07;;;12.60;19.20;;;;;;10449986;28;20308;-75
2021/04/24 23:44:35;;;;;;;4.03;3.70;;;12.50;19.40;;;;;;10450163;28;20236;-75
2021/04/24 23:49:37;;;;;;;3.87;3.53;;;12.40;19.50;;;;;;10451627;28;20286;-77
2021/04/24 23:54:43;;;;;;;4.73;4.07;;;12.30;19.60;;;;;;10445224;28;20252;-75
2021/04/24 23:59:45;;;;;;;4.87;3.67;;;12.20;20.00;;;;;;10439717;28;20705;-75
